Time;durP1;ratioP1;P1;durP2;ratioP2;P2;SDS_P1;SDS_P2;PMS_P1;PMS_P2;Temp;Humidity;BMP_temperature;BMP_pressure;BME280_temperature;BME280_humidity;BME280_pressure;Samples;Min_cycle;Max_cycle;Signal;HPM_P1;HPM_P2
2022/07/09 00:00:21;;;;;;;7.05;3.35;;;;;;;10.78;78.00;97188.72;2024700;29;20418;-43
2022/07/09 00:01:22;;;;;;;8.70;3.70;;;;;;;10.73;78.13;97185.38;2017337;29;20067;-42
2022/07/09 00:02:23;;;;;;;7.18;3.47;;;;;;;10.66;79.36;97186.44;2017311;29;20053;-43
2022/07/09 00:03:24;;;;;;;8.23;3.17;;;;;;;10.70;78.49;97186.31;2025272;29;20048;-43
2022/07/09 00:04:26;;;;;;;5.20;3.13;;;;;;;10.69;78.37;97187.25;2032800;29;20565;-46
2022/07/09 00:05:27;;;;;;;9.35;3.70;;;;;;;10.61;78.35;97189.16;2024896;29;20055;-44
2022/07/09 00:06:29;;;;;;;8.65;3.40;;;;;;;10.65;79.45;97184.75;2024777;29;20467;-44
2022/07/09 00:07:30;;;;;;;6.88;3.40;;;;;;;10.60;79.11;97185.72;2039992;29;20051;-43
2022/07/09 00:08:31;;;;;;;7.57;3.47;;;;;;;10.58;79.34;97184.06;2040497;29;20413;-44
2022/07/09 00:09:33;;;;;;;6.97;3.13;;;;;;;10.49;78.95;97186.94;2040510;29;20047;-43
2022/07/09 00:10:34;;;;;;;6.68;3.28;;;;;;;10.50;79.97;97180.84;2024766;29;20040;-43
2022/07/09 00:11:35;;;;;;;10.05;3.70;;;;;;;10.52;79.75;97181.66;2024566;29;20052;-42
2022/07/09 00:12:36;;;;;;;9.43;3.65;;;;;;;10.43;79.14;97174.97;2024698;29;20053;-44
2022/07/09 00:13:38;;;;;;;7.75;3.83;;;;;;;10.66;79.09;97182.09;2024935;29;20044;-43
2022/07/09 00:14:39;;;;;;;6.72;3.25;;;;;;;10.83;77.96;97184.22;2040818;29;20052;-42
2022/07/09 00:15:40;;;;;;;5.15;3.42;;;;;;;10.74;78.04;97181.88;2040710;29;20783;-43
2022/07/09 00:16:41;;;;;;;8.57;3.20;;;;;;;10.74;78.78;97177.53;2040466;29;20040;-44
2022/07/09 00:17:42;;;;;;;8.95;3.10;;;;;;;10.73;78.38;97178.44;2032991;29;20044;-45
2022/07/09 00:18:44;;;;;;;6.75;3.50;;;;;;;10.63;78.38;97181.34;2024920;29;20059;-43
2022/07/09 00:19:45;;;;;;;6.63;3.20;;;;;;;10.63;79.22;97178.75;2032491;29;20048;-44
2022/07/09 00:20:46;;;;;;;7.13;3.47;;;;;;;10.63;78.38;97173.56;2032515;29;20485;-43
2022/07/09 00:21:47;;;;;;;10.13;3.60;;;;;;;10.57;79.25;97172.84;2039870;29;20138;-44
2022/07/09 00:22:49;;;;;;;8.05;3.50;;;;;;;10.52;79.54;97169.50;2048004;29;20054;-46
2022/07/09 00:23:50;;;;;;;7.88;3.28;;;;;;;10.53;78.91;97170.34;2041133;29;20058;-44
2022/07/09 00:24:51;;;;;;;7.00;3.47;;;;;;;10.47;78.91;97165.34;2032268;29;20055;-44
2022/07/09 00:25:53;;;;;;;7.53;3.08;;;;;;;10.43;79.38;97166.34;2028410;29;20043;-45
2022/07/09 00:26:54;;;;;;;6.90;3.47;;;;;;;10.45;79.16;97167.13;2032279;29;20059;-44
2022/07/09 00:27:55;;;;;;;7.35;3.17;;;;;;;10.50;78.88;97170.44;2040750;29;20070;-42
2022/07/09 00:28:56;;;;;;;8.00;3.22;;;;;;;10.53;78.84;97172.94;2047669;29;20095;-43
2022/07/09 00:29:58;;;;;;;6.13;3.28;;;;;;;10.42;79.99;97164.63;2048025;29;20047;-44
2022/07/09 00:30:59;;;;;;;5.72;3.13;;;;;;;10.44;80.03;97170.63;2032277;29;20055;-46
2022/07/09 00:32:00;;;;;;;9.07;3.60;;;;;;;10.46;80.16;97163.66;2036577;29;20051;-43
2022/07/09 00:33:02;;;;;;;8.25;3.60;;;;;;;10.50;81.14;97168.69;2024386;29;20063;-44
2022/07/09 00:34:03;;;;;;;7.57;3.85;;;;;;;10.42;81.14;97164.63;2025465;29;20044;-43
2022/07/09 00:35:05;;;;;;;6.55;3.33;;;;;;;10.36;81.21;97169.09;2024445;29;20447;-42
2022/07/09 00:36:06;;;;;;;7.60;3.38;;;;;;;10.43;80.68;97166.34;2017543;29;20053;-45
2022/07/09 00:37:08;;;;;;;7.88;3.47;;;;;;;10.41;81.80;97173.31;2032193;29;20421;-45
2022/07/09 00:38:09;;;;;;;8.40;3.95;;;;;;;10.35;81.38;97169.16;2041340;29;20072;-43
2022/07/09 00:39:10;;;;;;;7.68;3.10;;;;;;;10.41;80.74;97166.38;2024211;29;20052;-44
2022/07/09 00:40:11;;;;;;;8.52;3.30;;;;;;;10.41;80.91;97163.78;2017403;29;20049;-45
2022/07/09 00:41:13;;;;;;;6.50;3.00;;;;;;;10.42;81.09;97160.28;2024713;29;20045;-43
2022/07/09 00:42:14;;;;;;;7.20;3.38;;;;;;;10.42;80.13;97162.88;2040105;29;20056;-44
2022/07/09 00:43:17;;;;;;;8.88;3.45;;;;;;;10.40;80.78;97166.41;2040411;29;20059;-41
2022/07/09 00:44:18;;;;;;;8.10;3.47;;;;;;;10.34;80.33;97155.31;2032550;29;20048;-43
2022/07/09 00:45:20;;;;;;;8.75;3.17;;;;;;;10.33;80.92;97166.59;2040146;29;20078;-46
2022/07/09 00:46:21;;;;;;;9.35;3.20;;;;;;;10.32;80.86;97157.09;2040111;29;20058;-44
2022/07/09 00:47:22;;;;;;;8.00;3.63;;;;;;;10.29;80.15;97156.31;2024272;29;20048;-44
2022/07/09 00:48:23;;;;;;;7.05;3.30;;;;;;;10.28;80.13;97155.47;2032133;29;20466;-43
2022/07/09 00:49:25;;;;;;;9.65;3.55;;;;;;;10.24;81.05;97153.00;2039904;29;20051;-44
2022/07/09 00:50:26;;;;;;;9.55;3.40;;;;;;;10.18;80.80;97156.56;2032360;29;20526;-46
2022/07/09 00:51:27;;;;;;;4.75;3.20;;;;;;;10.14;81.20;97161.00;2016140;29;20045;-46
2022/07/09 00:52:29;;;;;;;8.82;3.35;;;;;;;10.12;81.45;97154.16;2009431;29;20049;-43
2022/07/09 00:53:30;;;;;;;5.22;3.15;;;;;;;10.09;81.78;97156.84;2031689;29;20544;-46
2022/07/09 00:54:31;;;;;;;6.53;3.17;;;;;;;10.02;82.15;97155.28;2032572;29;20153;-44
2022/07/09 00:55:33;;;;;;;7.03;3.60;;;;;;;10.07;81.81;97154.25;2024704;29;20044;-45
2022/07/09 00:56:34;;;;;;;5.97;3.20;;;;;;;10.02;81.75;97156.13;2023973;29;20455;-43
2022/07/09 00:57:35;;;;;;;6.05;3.33;;;;;;;10.17;81.09;97149.69;2032109;29;20475;-44
2022/07/09 00:58:36;;;;;;;7.22;3.67;;;;;;;10.12;81.84;97154.16;2032352;29;20070;-44
2022/07/09 00:59:38;;;;;;;7.47;3.38;;;;;;;10.08;81.46;97155.16;2024706;29;20430;-42
2022/07/09 01:00:39;;;;;;;7.35;3.50;;;;;;;10.05;82.24;97155.19;2016835;29;20056;-43
2022/07/09 01:01:40;;;;;;;7.10;3.58;;;;;;;10.04;82.35;97153.50;2016564;29;20049;-46
2022/07/09 01:02:42;;;;;;;6.53;3.72;;;;;;;9.97;81.86;97151.97;2024371;29;20053;-43
2022/07/09 01:03:43;;;;;;;7.43;3.78;;;;;;;9.98;82.41;97148.50;2024668;29;20498;-44
2022/07/09 01:04:44;;;;;;;6.80;3.70;;;;;;;9.94;82.21;97148.56;2024549;29;20053;-43
2022/07/09 01:05:45;;;;;;;6.78;3.80;;;;;;;9.87;82.10;97151.38;2041073;29;20062;-44
2022/07/09 01:06:46;;;;;;;10.30;3.83;;;;;;;9.88;82.49;97143.53;2031986;29;20557;-47
2022/07/09 01:07:48;;;;;;;10.13;3.88;;;;;;;9.82;82.89;97148.88;2024595;29;20060;-43
2022/07/09 01:08:49;;;;;;;7.20;3.45;;;;;;;9.76;82.51;97146.47;2039638;29;20059;-43
2022/07/09 01:09:50;;;;;;;6.55;3.40;;;;;;;9.77;83.07;97149.91;2040132;29;20055;-44
2022/07/09 01:10:51;;;;;;;8.27;3.30;;;;;;;9.80;82.89;97142.88;2032185;29;20107;-43
2022/07/09 01:11:53;;;;;;;10.30;3.22;;;;;;;9.77;82.52;97147.31;2023961;29;20051;-49
2022/07/09 01:12:55;;;;;;;8.63;3.97;;;;;;;9.77;83.35;97145.56;2032632;29;20040;-44
2022/07/09 01:13:56;;;;;;;6.75;3.75;;;;;;;9.80;83.26;97135.09;2025065;29;20055;-42
2022/07/09 01:14:58;;;;;;;8.07;3.75;;;;;;;9.76;83.25;97143.00;2024489;29;20075;-43
2022/07/09 01:15:59;;;;;;;10.00;4.45;;;;;;;9.86;82.67;97140.16;2031961;29;20048;-46
2022/07/09 01:17:02;;;;;;;14.27;4.10;;;;;;;9.82;82.57;97138.50;2031939;29;20059;-42
2022/07/09 01:18:04;;;;;;;7.63;3.58;;;;;;;9.81;82.76;97138.53;2032140;29;20059;-43
2022/07/09 01:19:05;;;;;;;5.47;3.45;;;;;;;9.75;82.83;97142.13;2024272;29;20071;-42
2022/07/09 01:20:07;;;;;;;5.90;3.95;;;;;;;9.78;82.50;97139.47;2032220;29;20063;-43
2022/07/09 01:21:08;;;;;;;10.30;4.28;;;;;;;9.70;83.03;97137.09;2047775;29;20047;-43
2022/07/09 01:22:09;;;;;;;6.07;3.45;;;;;;;9.69;82.86;97135.38;2031576;29;20055;-47
2022/07/09 01:23:10;;;;;;;9.07;3.78;;;;;;;9.71;83.13;97135.34;2024082;29;20506;-44
2022/07/09 01:24:12;;;;;;;11.43;4.30;;;;;;;9.66;82.82;97132.84;2024049;29;20115;-44
2022/07/09 01:25:13;;;;;;;6.90;4.30;;;;;;;9.61;83.51;97132.13;2032081;29;20064;-44
2022/07/09 01:26:14;;;;;;;12.27;4.43;;;;;;;9.63;83.08;97129.50;2022624;29;20055;-44
2022/07/09 01:27:15;;;;;;;7.32;3.80;;;;;;;9.61;83.46;97133.88;2024516;29;20063;-44
2022/07/09 01:28:17;;;;;;;11.13;3.88;;;;;;;9.69;83.20;97127.59;2032015;29;20051;-43
2022/07/09 01:29:18;;;;;;;8.02;4.25;;;;;;;9.65;82.72;97125.09;2024570;29;20068;-44
2022/07/09 01:30:23;;;;;;;6.78;4.05;;;;;;;9.72;82.97;97126.66;2009537;29;20045;-44
2022/07/09 01:31:25;;;;;;;7.63;4.40;;;;;;;9.66;83.15;97122.47;2017329;29;20049;-43
2022/07/09 01:32:26;;;;;;;9.43;4.20;;;;;;;9.67;83.66;97123.31;2031793;29;20040;-45
2022/07/09 01:33:27;;;;;;;8.20;4.30;;;;;;;9.62;83.12;97135.56;2016837;29;20048;-43
2022/07/09 01:34:28;;;;;;;10.10;4.38;;;;;;;9.58;83.12;97118.38;2009735;29;20057;-43
2022/07/09 01:35:30;;;;;;;7.30;4.00;;;;;;;9.59;83.45;97126.13;2016338;29;20052;-43
2022/07/09 01:36:31;;;;;;;15.23;4.03;;;;;;;9.60;83.85;97129.59;2032555;29;20521;-43
2022/07/09 01:37:32;;;;;;;11.88;4.18;;;;;;;9.55;83.56;97118.47;2039810;29;20048;-45
2022/07/09 01:38:33;;;;;;;7.82;4.20;;;;;;;9.56;84.30;97130.53;2024420;29;20537;-44
2022/07/09 01:39:34;;;;;;;5.80;4.30;;;;;;;9.57;84.14;97119.25;2032135;29;20040;-44
2022/07/09 01:40:36;;;;;;;6.90;4.50;;;;;;;9.59;83.35;97120.94;2039616;29;20050;-43
2022/07/09 01:41:38;;;;;;;5.90;3.83;;;;;;;9.60;83.54;97120.06;2032118;29;20036;-43
2022/07/09 01:42:39;;;;;;;10.15;4.15;;;;;;;9.56;83.70;97125.34;2016563;29;20461;-43
2022/07/09 01:43:40;;;;;;;8.23;3.97;;;;;;;9.52;83.92;97124.59;2031831;29;20063;-45
2022/07/09 01:44:42;;;;;;;7.60;4.20;;;;;;;9.61;83.58;97119.16;2039852;29;20043;-42
2022/07/09 01:45:43;;;;;;;10.10;4.25;;;;;;;9.59;83.52;97120.09;2023946;29;20105;-44
2022/07/09 01:46:44;;;;;;;9.65;4.88;;;;;;;9.55;83.74;97119.31;2031608;29;20056;-45
2022/07/09 01:47:46;;;;;;;8.38;4.60;;;;;;;9.54;84.02;97121.94;2032393;29;20051;-44
2022/07/09 01:48:47;;;;;;;7.65;4.38;;;;;;;9.53;83.86;97115.91;2033119;29;20040;-45
2022/07/09 01:49:48;;;;;;;8.00;4.60;;;;;;;9.59;84.20;97120.09;2026254;29;20052;-43
2022/07/09 01:50:49;;;;;;;10.25;4.40;;;;;;;9.57;84.34;97121.84;2033358;29;20445;-43
2022/07/09 01:51:50;;;;;;;8.00;4.53;;;;;;;9.56;83.82;97125.34;2025917;29;20060;-46
2022/07/09 01:52:52;;;;;;;7.45;4.38;;;;;;;9.52;84.39;97113.38;2025619;29;20060;-44
2022/07/09 01:53:53;;;;;;;7.95;3.97;;;;;;;9.46;84.51;97114.34;2033654;29;20052;-44
2022/07/09 01:54:54;;;;;;;9.50;4.50;;;;;;;9.46;84.63;97119.53;2018307;29;20075;-42
2022/07/09 01:55:55;;;;;;;10.10;4.55;;;;;;;9.45;84.36;97112.66;2018024;29;20431;-43
2022/07/09 01:56:57;;;;;;;9.05;4.32;;;;;;;9.49;84.25;97115.13;2041105;29;20051;-42
2022/07/09 01:57:58;;;;;;;9.43;4.20;;;;;;;9.50;83.62;97110.81;2049336;29;20417;-44
2022/07/09 01:58:59;;;;;;;8.88;4.90;;;;;;;9.47;84.36;97111.72;2033299;29;20063;-45
2022/07/09 02:00:01;;;;;;;7.07;4.28;;;;;;;9.45;84.26;97112.66;2026342;29;20597;-43
2022/07/09 02:01:03;;;;;;;7.55;4.57;;;;;;;9.43;84.44;97111.84;2033261;29;20063;-44
2022/07/09 02:02:05;;;;;;;7.93;4.25;;;;;;;9.42;84.69;97108.41;2033156;29;20044;-44
2022/07/09 02:03:06;;;;;;;11.05;4.68;;;;;;;9.47;84.34;97105.69;2026133;29;20057;-43
2022/07/09 02:04:07;;;;;;;11.18;4.43;;;;;;;9.49;84.69;97107.38;2033669;29;20059;-44
2022/07/09 02:05:09;;;;;;;9.85;4.53;;;;;;;9.62;83.46;97110.50;2041240;29;20043;-44
2022/07/09 02:06:10;;;;;;;10.50;4.18;;;;;;;9.62;83.71;97104.44;2026161;29;20048;-44
2022/07/09 02:07:12;;;;;;;7.38;4.45;;;;;;;9.63;83.80;97106.16;2018254;29;20721;-43
2022/07/09 02:08:13;;;;;;;10.02;4.70;;;;;;;9.60;83.74;97101.06;2018078;29;20438;-44
2022/07/09 02:09:14;;;;;;;7.72;4.40;;;;;;;9.52;84.43;97106.44;2025689;29;20044;-44
2022/07/09 02:10:15;;;;;;;9.73;4.40;;;;;;;9.47;84.38;97101.34;2033117;29;20050;-46
2022/07/09 02:11:16;;;;;;;9.75;4.43;;;;;;;9.52;84.32;97100.41;2033226;29;20079;-43
2022/07/09 02:12:18;;;;;;;8.13;4.60;;;;;;;9.46;84.51;97101.38;2032571;29;20044;-44
2022/07/09 02:13:19;;;;;;;7.50;4.40;;;;;;;9.41;84.65;97096.34;2010359;29;20057;-44
2022/07/09 02:14:20;;;;;;;12.95;4.75;;;;;;;9.40;84.92;97098.94;2018577;29;20060;-43
2022/07/09 02:15:21;;;;;;;10.25;5.28;;;;;;;9.42;84.58;97095.44;2033587;29;20063;-43
2022/07/09 02:16:23;;;;;;;5.93;3.83;;;;;;;9.43;85.40;97098.88;2034256;29;20052;-43
2022/07/09 02:17:24;;;;;;;7.82;4.35;;;;;;;9.39;84.77;97100.69;2026406;29;20048;-43
2022/07/09 02:18:25;;;;;;;7.60;4.00;;;;;;;9.46;84.17;97093.59;2026046;29;20048;-42
2022/07/09 02:19:26;;;;;;;6.70;5.03;;;;;;;9.39;84.93;97092.91;2041302;29;20055;-42
2022/07/09 02:20:27;;;;;;;7.82;4.03;;;;;;;9.40;84.57;97093.75;2033661;29;20044;-42
2022/07/09 02:21:29;;;;;;;9.63;4.63;;;;;;;9.44;84.37;97088.47;2018261;29;20531;-43
2022/07/09 02:22:31;;;;;;;9.98;4.40;;;;;;;9.35;84.60;97090.44;2017619;29;20416;-45
2022/07/09 02:23:32;;;;;;;7.97;4.75;;;;;;;9.38;85.01;97087.75;2025339;29;20068;-45
2022/07/09 02:24:33;;;;;;;9.15;4.70;;;;;;;9.34;84.44;97096.53;2025845;29;20380;-43
2022/07/09 02:25:34;;;;;;;7.95;4.00;;;;;;;9.29;84.61;97096.63;2018570;29;20052;-44
2022/07/09 02:26:37;;;;;;;9.77;4.93;;;;;;;9.25;85.35;97090.69;2033540;29;20044;-43
2022/07/09 02:27:38;;;;;;;7.55;3.88;;;;;;;9.19;85.71;97083.03;2025694;29;20053;-44
2022/07/09 02:28:40;;;;;;;12.52;4.88;;;;;;;9.18;85.37;97083.94;2018111;29;20484;-42
2022/07/09 02:29:41;;;;;;;11.77;4.50;;;;;;;9.15;85.47;97081.41;2025505;29;20047;-43
2022/07/09 02:30:42;;;;;;;6.18;4.25;;;;;;;9.23;85.44;97089.00;2041293;29;20043;-44
2022/07/09 02:31:44;;;;;;;8.93;4.53;;;;;;;9.19;85.17;97085.63;2033105;29;20044;-44
2022/07/09 02:32:45;;;;;;;7.40;4.38;;;;;;;9.17;85.24;97087.41;2016897;29;20064;-43
2022/07/09 02:33:46;;;;;;;8.52;4.28;;;;;;;9.18;85.27;97089.13;2017471;29;20051;-43
2022/07/09 02:34:47;;;;;;;6.30;3.80;;;;;;;9.21;85.49;97089.03;2017639;29;20063;-43
2022/07/09 02:35:48;;;;;;;9.20;4.80;;;;;;;9.19;85.76;97084.78;2025769;29;20060;-45
2022/07/09 02:36:51;;;;;;;5.70;3.88;;;;;;;9.23;85.52;97081.22;2025051;29;20531;-42
2022/07/09 02:37:52;;;;;;;7.22;4.55;;;;;;;9.28;85.27;97085.41;2018037;29;20056;-42
2022/07/09 02:38:53;;;;;;;10.05;4.55;;;;;;;9.28;84.80;97084.56;2017640;29;20545;-43
2022/07/09 02:39:54;;;;;;;8.80;4.05;;;;;;;9.30;85.16;97089.69;2025393;29;20044;-44
2022/07/09 02:40:56;;;;;;;8.27;4.18;;;;;;;9.29;85.58;97091.44;2025376;29;20067;-41
2022/07/09 02:41:57;;;;;;;8.00;4.35;;;;;;;9.28;85.42;97089.75;2040331;29;20055;-45
2022/07/09 02:42:58;;;;;;;8.38;4.03;;;;;;;9.24;85.33;97085.50;2033467;29;20075;-42
2022/07/09 02:43:59;;;;;;;8.27;4.38;;;;;;;9.25;85.57;97084.66;2033236;29;20048;-43
2022/07/09 02:45:00;;;;;;;8.65;4.30;;;;;;;9.39;84.56;97087.75;2048327;29;20039;-41
2022/07/09 02:46:03;;;;;;;8.02;4.50;;;;;;;9.28;85.08;97087.16;2033298;29;20055;-43
2022/07/09 02:47:05;;;;;;;7.65;4.63;;;;;;;9.25;85.75;97088.09;2040834;29;20055;-43
2022/07/09 02:48:06;;;;;;;6.78;4.38;;;;;;;9.17;85.15;97083.97;2040346;29;20549;-42
2022/07/09 02:49:07;;;;;;;8.30;4.40;;;;;;;9.13;85.71;97079.75;2040775;29;20048;-46
2022/07/09 02:50:09;;;;;;;7.95;4.55;;;;;;;9.10;85.66;97078.09;2026128;29;20063;-44
2022/07/09 02:51:10;;;;;;;12.50;4.53;;;;;;;9.07;85.63;97074.72;2017973;29;20049;-44
2022/07/09 02:52:11;;;;;;;8.95;4.47;;;;;;;9.06;85.85;97079.03;2025038;29;20489;-47
2022/07/09 02:53:12;;;;;;;10.60;4.50;;;;;;;9.12;86.52;97083.25;2017547;29;20061;-46
2022/07/09 02:54:14;;;;;;;7.47;4.40;;;;;;;9.20;86.17;97081.31;2024958;29;20044;-45
2022/07/09 02:55:15;;;;;;;9.05;4.63;;;;;;;9.21;85.63;97077.81;2025919;29;20076;-44
2022/07/09 02:56:16;;;;;;;6.45;4.05;;;;;;;9.25;85.34;97085.50;2033434;29;20055;-45
2022/07/09 02:57:17;;;;;;;10.07;4.05;;;;;;;9.29;85.39;97083.66;2025468;29;20057;-43
2022/07/09 02:58:19;;;;;;;14.90;5.32;;;;;;;9.29;85.58;97091.44;2033221;29;20052;-45
2022/07/09 02:59:20;;;;;;;9.48;4.50;;;;;;;9.24;85.42;97088.09;2017725;29;20048;-44
2022/07/09 03:00:21;;;;;;;11.38;4.60;;;;;;;9.20;85.81;97086.50;2025710;29;20450;-44
2022/07/09 03:01:22;;;;;;;7.35;4.07;;;;;;;9.17;85.65;97081.38;2041306;29;20455;-44
2022/07/09 03:02:24;;;;;;;8.52;4.55;;;;;;;9.19;85.77;97087.38;2032693;29;20048;-47
2022/07/09 03:03:26;;;;;;;8.07;4.80;;;;;;;9.17;85.43;97083.97;2041006;29;20051;-44
2022/07/09 03:04:27;;;;;;;15.88;4.55;;;;;;;9.15;85.77;97085.75;2025612;29;20122;-44
2022/07/09 03:05:28;;;;;;;10.13;4.35;;;;;;;9.15;85.38;97086.59;2025790;29;20051;-44
2022/07/09 03:06:29;;;;;;;9.52;4.78;;;;;;;9.14;86.09;97091.81;2025563;29;20048;-43
2022/07/09 03:07:31;;;;;;;8.60;5.15;;;;;;;9.13;86.35;97088.38;2033206;29;20040;-44
2022/07/09 03:08:32;;;;;;;7.15;4.07;;;;;;;9.13;86.26;97087.53;2033722;29;20055;-47
2022/07/09 03:09:33;;;;;;;8.18;4.75;;;;;;;9.15;86.21;97085.75;2025883;29;20048;-44
2022/07/09 03:10:35;;;;;;;9.02;4.10;;;;;;;9.28;85.87;97089.75;2025486;29;20047;-45
2022/07/09 03:11:36;;;;;;;10.40;4.57;;;;;;;9.26;85.75;97086.34;2025297;29;20044;-44
2022/07/09 03:12:37;;;;;;;7.70;4.00;;;;;;;9.26;85.95;97086.34;2024928;29;20435;-42
2022/07/09 03:13:39;;;;;;;9.15;4.75;;;;;;;9.31;86.18;97088.81;2025244;29;20057;-44
2022/07/09 03:14:40;;;;;;;6.22;4.25;;;;;;;9.39;84.60;97084.28;2025432;29;20052;-44
2022/07/09 03:15:41;;;;;;;9.20;4.40;;;;;;;9.49;84.34;97083.19;2018063;29;20052;-44
2022/07/09 03:16:43;;;;;;;7.20;4.57;;;;;;;9.58;84.19;97088.13;2018902;29;20060;-46
2022/07/09 03:17:44;;;;;;;11.00;4.20;;;;;;;9.61;84.18;97084.59;2010580;29;20057;-43
2022/07/09 03:18:45;;;;;;;9.23;4.35;;;;;;;9.64;83.88;97084.50;2017496;29;20057;-44
2022/07/09 03:19:47;;;;;;;12.75;5.05;;;;;;;9.65;84.73;97088.78;2024948;29;20045;-46
2022/07/09 03:20:48;;;;;;;7.72;3.90;;;;;;;9.66;83.92;97085.31;2040538;29;20056;-44
2022/07/09 03:21:50;;;;;;;8.80;4.15;;;;;;;9.70;84.01;97086.94;2040610;29;20052;-49
2022/07/09 03:22:51;;;;;;;9.50;4.75;;;;;;;9.69;83.92;97098.22;2033045;29;20048;-46
2022/07/09 03:23:53;;;;;;;7.50;4.25;;;;;;;9.69;84.24;97086.09;2017377;29;20141;-44
2022/07/09 03:24:54;;;;;;;8.52;4.30;;;;;;;9.69;84.14;97083.50;2017242;29;20060;-44
2022/07/09 03:25:55;;;;;;;7.97;4.10;;;;;;;9.72;84.04;97085.16;2028567;29;20040;-44
2022/07/09 03:26:57;;;;;;;9.13;4.15;;;;;;;9.74;83.74;97088.56;2032938;29;20114;-44
2022/07/09 03:27:59;;;;;;;6.97;4.38;;;;;;;9.74;83.87;97088.56;2040557;29;20577;-45
2022/07/09 03:29:01;;;;;;;7.85;4.32;;;;;;;9.79;83.23;97086.72;2041125;29;20118;-42
2022/07/09 03:30:03;;;;;;;10.40;4.35;;;;;;;9.85;83.82;97088.28;2032941;29;20040;-44
2022/07/09 03:31:04;;;;;;;7.22;4.70;;;;;;;9.93;84.02;97094.13;2010783;29;20427;-43
2022/07/09 03:32:06;;;;;;;8.98;4.45;;;;;;;9.91;82.47;97091.53;2019149;29;20044;-45
2022/07/09 03:33:07;;;;;;;7.65;4.28;;;;;;;9.98;83.27;97097.44;2025232;29;20446;-45
2022/07/09 03:34:09;;;;;;;8.82;4.20;;;;;;;10.00;82.41;97089.63;2032448;29;20060;-44
2022/07/09 03:35:10;;;;;;;8.27;3.88;;;;;;;9.97;82.74;97094.88;2032654;29;20056;-46
2022/07/09 03:36:11;;;;;;;8.60;4.43;;;;;;;9.97;82.75;97100.06;2040520;29;20044;-44
2022/07/09 03:37:12;;;;;;;7.97;4.35;;;;;;;9.96;83.07;97101.81;2032751;29;20462;-45
2022/07/09 03:38:14;;;;;;;8.10;3.88;;;;;;;9.99;82.07;97091.34;2040605;29;20047;-44
2022/07/09 03:39:15;;;;;;;10.73;4.40;;;;;;;10.05;82.50;97101.56;2032643;29;20060;-44
2022/07/09 03:40:16;;;;;;;9.57;4.57;;;;;;;10.10;82.10;97096.22;2039935;29;20051;-45
2022/07/09 03:41:17;;;;;;;9.45;4.60;;;;;;;10.13;82.54;97101.34;2032266;29;20051;-47
2022/07/09 03:42:19;;;;;;;10.80;4.30;;;;;;;10.18;82.26;97096.03;2032335;29;20044;-44
2022/07/09 03:43:20;;;;;;;8.55;4.18;;;;;;;10.18;83.02;97096.03;2059657;23;20417;-41
2022/07/09 03:44:21;;;;;;;6.88;4.22;;;;;;;10.20;82.65;97100.28;2027160;29;20071;-40
2022/07/09 03:45:22;;;;;;;6.95;3.88;;;;;;;10.23;81.99;97097.59;2009847;29;20045;-39
2022/07/09 03:46:24;;;;;;;8.93;4.00;;;;;;;10.26;82.70;97092.31;2017609;29;20036;-40
2022/07/09 03:47:25;;;;;;;8.20;4.13;;;;;;;10.30;82.21;97093.13;2032791;29;20052;-41
2022/07/09 03:48:26;;;;;;;10.05;4.18;;;;;;;10.29;81.33;97092.28;2032352;29;20051;-40
2022/07/09 03:49:28;;;;;;;8.00;4.10;;;;;;;10.36;83.00;97088.59;2024773;29;20671;-40
2022/07/09 03:50:29;;;;;;;8.10;4.03;;;;;;;10.38;81.66;97088.56;2024845;29;20049;-39
2022/07/09 03:51:30;;;;;;;5.03;3.50;;;;;;;10.49;80.49;97089.09;2024709;29;20533;-39
2022/07/09 03:52:32;;;;;;;6.38;4.13;;;;;;;10.50;80.18;97093.38;2024684;29;20040;-39
2022/07/09 03:53:33;;;;;;;6.72;4.28;;;;;;;10.50;81.14;97095.13;2033019;29;20047;-40
2022/07/09 03:54:34;;;;;;;9.20;4.40;;;;;;;10.49;81.51;97083.06;2032496;29;20059;-41
2022/07/09 03:55:35;;;;;;;6.13;3.85;;;;;;;10.54;81.25;97091.56;2033487;29;20513;-40
2022/07/09 03:56:37;;;;;;;9.57;4.03;;;;;;;10.56;81.47;97089.78;2024693;29;20052;-37
2022/07/09 03:57:38;;;;;;;7.45;4.00;;;;;;;10.57;80.49;97087.13;2032605;29;20044;-39
2022/07/09 03:58:40;;;;;;;7.43;3.95;;;;;;;10.57;80.95;97089.72;2039778;29;20052;-39
2022/07/09 03:59:41;;;;;;;5.68;3.75;;;;;;;10.57;80.96;97086.28;2040799;29;20048;-40
2022/07/09 04:00:42;;;;;;;10.05;4.00;;;;;;;10.58;81.28;97093.16;2024605;29;20495;-41
2022/07/09 04:01:44;;;;;;;8.18;3.90;;;;;;;10.59;81.09;97093.13;2017320;29;20055;-42
2022/07/09 04:02:46;;;;;;;8.48;4.10;;;;;;;10.60;80.68;97092.22;2025033;29;20442;-41
2022/07/09 04:03:47;;;;;;;9.63;4.43;;;;;;;10.57;81.29;97087.13;2032205;29;20056;-41
2022/07/09 04:04:48;;;;;;;8.80;4.13;;;;;;;10.57;81.38;97099.25;2032461;29;20044;-40
2022/07/09 04:05:49;;;;;;;7.65;4.72;;;;;;;10.63;80.61;97093.03;2024804;29;20056;-39
2022/07/09 04:06:51;;;;;;;11.35;3.92;;;;;;;10.61;80.63;97093.06;2017051;29;20056;-41
2022/07/09 04:07:52;;;;;;;7.18;3.65;;;;;;;10.59;81.26;97094.88;2017548;29;20053;-39
2022/07/09 04:08:53;;;;;;;11.95;4.30;;;;;;;10.65;80.52;97092.09;2024566;29;20053;-40
2022/07/09 04:09:54;;;;;;;6.10;3.95;;;;;;;10.69;80.51;97096.31;2024749;29;20060;-39
2022/07/09 04:10:56;;;;;;;7.70;3.95;;;;;;;10.70;80.41;97103.19;2024908;29;20048;-38
2022/07/09 04:11:57;;;;;;;6.10;3.85;;;;;;;10.69;80.82;97096.31;2031995;29;20052;-40
2022/07/09 04:12:58;;;;;;;10.05;3.78;;;;;;;10.79;80.16;97105.50;2024582;29;20051;-39
2022/07/09 04:14:00;;;;;;;8.45;3.83;;;;;;;10.79;80.62;97102.06;2025107;29;20059;-40
2022/07/09 04:15:02;;;;;;;6.63;3.42;;;;;;;10.80;80.23;97095.97;2032403;29;20059;-40
2022/07/09 04:16:03;;;;;;;8.23;3.95;;;;;;;10.89;78.96;97098.28;2017462;29;20049;-39
2022/07/09 04:17:05;;;;;;;8.70;4.28;;;;;;;10.87;79.71;97107.03;2017224;29;20522;-40
2022/07/09 04:18:07;;;;;;;5.45;3.72;;;;;;;10.93;79.83;97096.44;2032792;29;20044;-39
2022/07/09 04:19:08;;;;;;;6.45;3.97;;;;;;;10.84;79.50;97097.56;2024829;29;20534;-39
2022/07/09 04:20:10;;;;;;;9.82;4.10;;;;;;;10.84;79.00;97097.56;2025110;29;20656;-42
2022/07/09 04:21:11;;;;;;;6.20;3.60;;;;;;;10.95;79.07;97100.69;2017522;29;20056;-39
2022/07/09 04:22:12;;;;;;;5.88;3.38;;;;;;;11.01;79.35;97097.03;2017417;29;20057;-40
2022/07/09 04:23:13;;;;;;;5.93;3.75;;;;;;;10.95;79.86;97105.03;2032618;29;20051;-39
2022/07/09 04:24:15;;;;;;;5.47;3.40;;;;;;;10.93;79.41;97099.91;2024784;29;20053;-40
2022/07/09 04:25:17;;;;;;;9.35;3.80;;;;;;;10.99;79.79;97106.66;2025074;29;20059;-38
2022/07/09 04:26:18;;;;;;;8.45;3.58;;;;;;;11.00;78.93;97096.19;2024567;29;20056;-40
2022/07/09 04:27:19;;;;;;;6.82;3.58;;;;;;;11.04;78.98;97097.81;2024543;29;20546;-41
2022/07/09 04:28:21;;;;;;;5.43;3.25;;;;;;;11.08;79.47;97092.50;2032393;29;20052;-40
2022/07/09 04:29:22;;;;;;;5.72;3.05;;;;;;;11.01;79.53;97090.13;2032353;29;20044;-40
2022/07/09 04:30:23;;;;;;;9.05;4.00;;;;;;;11.04;79.57;97096.97;2032545;29;20433;-38
2022/07/09 04:31:24;;;;;;;5.70;3.42;;;;;;;11.06;80.28;97099.50;2024666;29;20055;-40
2022/07/09 04:32:26;;;;;;;6.28;3.63;;;;;;;11.00;79.15;97095.34;2024563;29;20453;-42
2022/07/09 04:33:27;;;;;;;9.30;3.65;;;;;;;11.04;79.30;97100.41;2023880;29;20565;-40
2022/07/09 04:34:28;;;;;;;7.80;3.80;;;;;;;11.10;80.05;97099.38;2017202;29;20450;-40
2022/07/09 04:35:30;;;;;;;9.07;3.72;;;;;;;11.15;79.29;97102.69;2024781;29;20048;-40
2022/07/09 04:36:31;;;;;;;6.68;3.40;;;;;;;11.21;79.42;97097.28;2016971;29;20060;-39
2022/07/09 04:37:32;;;;;;;7.22;4.15;;;;;;;11.25;79.40;97096.28;2010042;29;20435;-40
2022/07/09 04:38:34;;;;;;;9.57;3.60;;;;;;;11.22;79.16;97098.97;2024216;29;20052;-40
2022/07/09 04:39:35;;;;;;;7.07;3.58;;;;;;;11.30;79.55;97103.06;2024543;29;20045;-39
2022/07/09 04:40:38;;;;;;;8.23;3.88;;;;;;;11.34;78.60;97104.69;2025181;29;20537;-37
2022/07/09 04:41:39;;;;;;;6.72;3.80;;;;;;;11.39;77.89;97102.78;2025212;29;20411;-40
2022/07/09 04:42:41;;;;;;;6.03;3.30;;;;;;;11.41;78.89;97106.16;2017380;29;20053;-40
2022/07/09 04:43:42;;;;;;;6.25;3.38;;;;;;;11.37;78.15;97105.44;2024619;29;20040;-41
2022/07/09 04:44:44;;;;;;;10.38;3.42;;;;;;;11.51;78.13;97102.38;2024698;29;20048;-40
2022/07/09 04:45:45;;;;;;;5.85;3.63;;;;;;;11.39;79.61;97101.03;2033405;29;20048;-40
2022/07/09 04:46:46;;;;;;;5.95;3.50;;;;;;;11.46;79.70;97099.06;2024865;29;20411;-40
2022/07/09 04:47:48;;;;;;;9.60;4.43;;;;;;;11.38;80.54;97101.06;2025135;29;20057;-40
2022/07/09 04:48:49;;;;;;;12.05;4.05;;;;;;;11.20;80.59;97105.09;2032455;29;20059;-40
2022/07/09 04:49:50;;;;;;;6.25;3.85;;;;;;;11.17;81.22;97107.81;2025383;29;20055;-39